sensor_id;sensor_type;location;lat;lon;timestamp;temperature;humidity
52034;DHT22;38045;52.988;6.536;2024-03-07T00:02:11;5.00;73.30
52034;DHT22;38045;52.988;6.536;2024-03-07T00:04:37;4.90;73.30
52034;DHT22;38045;52.988;6.536;2024-03-07T00:07:03;4.90;73.40
52034;DHT22;38045;52.988;6.536;2024-03-07T00:09:32;4.80;73.30
52034;DHT22;38045;52.988;6.536;2024-03-07T00:11:58;4.80;73.40
52034;DHT22;38045;52.988;6.536;2024-03-07T00:14:24;4.70;73.30
52034;DHT22;38045;52.988;6.536;2024-03-07T00:16:54;4.70;73.20
52034;DHT22;38045;52.988;6.536;2024-03-07T00:19:20;4.70;73.30
52034;DHT22;38045;52.988;6.536;2024-03-07T00:21:46;4.70;73.20
52034;DHT22;38045;52.988;6.536;2024-03-07T00:24:12;4.70;73.20
52034;DHT22;38045;52.988;6.536;2024-03-07T00:26:39;4.70;73.10
52034;DHT22;38045;52.988;6.536;2024-03-07T00:29:06;4.60;73.30
52034;DHT22;38045;52.988;6.536;2024-03-07T00:31:32;4.50;73.20
52034;DHT22;38045;52.988;6.536;2024-03-07T00:33:58;4.50;72.80
52034;DHT22;38045;52.988;6.536;2024-03-07T00:36:24;4.50;72.90
52034;DHT22;38045;52.988;6.536;2024-03-07T00:38:50;4.50;72.90
52034;DHT22;38045;52.988;6.536;2024-03-07T00:41:15;4.50;72.80
52034;DHT22;38045;52.988;6.536;2024-03-07T00:43:42;4.50;72.90
52034;DHT22;38045;52.988;6.536;2024-03-07T00:46:08;4.40;72.90
52034;DHT22;38045;52.988;6.536;2024-03-07T00:48:34;4.40;72.80
52034;DHT22;38045;52.988;6.536;2024-03-07T00:50:59;4.40;72.70
52034;DHT22;38045;52.988;6.536;2024-03-07T00:53:25;4.40;72.90
52034;DHT22;38045;52.988;6.536;2024-03-07T00:55:51;4.40;72.90
52034;DHT22;38045;52.988;6.536;2024-03-07T00:58:16;4.40;72.70
52034;DHT22;38045;52.988;6.536;2024-03-07T01:00:42;4.30;72.60
52034;DHT22;38045;52.988;6.536;2024-03-07T01:03:11;4.30;72.70
52034;DHT22;38045;52.988;6.536;2024-03-07T01:05:42;4.30;72.60
52034;DHT22;38045;52.988;6.536;2024-03-07T01:08:07;4.30;72.80
52034;DHT22;38045;52.988;6.536;2024-03-07T01:10:33;4.20;72.90
52034;DHT22;38045;52.988;6.536;2024-03-07T01:12:59;4.20;72.80
52034;DHT22;38045;52.988;6.536;2024-03-07T01:15:29;4.20;72.90
52034;DHT22;38045;52.988;6.536;2024-03-07T01:17:55;4.20;72.90
52034;DHT22;38045;52.988;6.536;2024-03-07T01:20:21;4.20;72.90
52034;DHT22;38045;52.988;6.536;2024-03-07T01:22:48;4.20;72.90
52034;DHT22;38045;52.988;6.536;2024-03-07T01:25:17;4.20;72.80
52034;DHT22;38045;52.988;6.536;2024-03-07T01:27:42;4.20;72.70
52034;DHT22;38045;52.988;6.536;2024-03-07T01:30:09;4.10;72.60
52034;DHT22;38045;52.988;6.536;2024-03-07T01:32:34;4.10;72.70
52034;DHT22;38045;52.988;6.536;2024-03-07T01:35:00;4.10;72.60
52034;DHT22;38045;52.988;6.536;2024-03-07T01:37:26;4.00;72.60
52034;DHT22;38045;52.988;6.536;2024-03-07T01:39:52;4.00;72.70
52034;DHT22;38045;52.988;6.536;2024-03-07T01:42:17;4.00;72.70
52034;DHT22;38045;52.988;6.536;2024-03-07T01:44:43;4.00;72.70
52034;DHT22;38045;52.988;6.536;2024-03-07T01:47:09;4.00;72.80
52034;DHT22;38045;52.988;6.536;2024-03-07T01:49:36;3.90;72.80
52034;DHT22;38045;52.988;6.536;2024-03-07T01:52:02;3.90;72.70
52034;DHT22;38045;52.988;6.536;2024-03-07T01:54:31;3.90;72.80
52034;DHT22;38045;52.988;6.536;2024-03-07T01:56:57;3.90;72.60
52034;DHT22;38045;52.988;6.536;2024-03-07T01:59:24;3.90;72.70
52034;DHT22;38045;52.988;6.536;2024-03-07T02:01:50;3.90;72.70
52034;DHT22;38045;52.988;6.536;2024-03-07T02:04:16;3.80;72.70
52034;DHT22;38045;52.988;6.536;2024-03-07T02:06:42;3.70;72.60
52034;DHT22;38045;52.988;6.536;2024-03-07T02:09:07;3.70;72.60
52034;DHT22;38045;52.988;6.536;2024-03-07T02:11:34;3.70;72.70
52034;DHT22;38045;52.988;6.536;2024-03-07T02:13:59;3.60;72.70
52034;DHT22;38045;52.988;6.536;2024-03-07T02:16:25;3.60;72.70
52034;DHT22;38045;52.988;6.536;2024-03-07T02:18:51;3.60;72.80
52034;DHT22;38045;52.988;6.536;2024-03-07T02:21:17;3.60;72.70
52034;DHT22;38045;52.988;6.536;2024-03-07T02:23:42;3.60;72.70
52034;DHT22;38045;52.988;6.536;2024-03-07T02:26:09;3.50;72.60
52034;DHT22;38045;52.988;6.536;2024-03-07T02:28:35;3.50;72.60
52034;DHT22;38045;52.988;6.536;2024-03-07T02:31:01;3.50;72.60
52034;DHT22;38045;52.988;6.536;2024-03-07T02:33:26;3.50;72.70
52034;DHT22;38045;52.988;6.536;2024-03-07T02:35:52;3.50;72.70
52034;DHT22;38045;52.988;6.536;2024-03-07T02:38:18;3.50;72.80
52034;DHT22;38045;52.988;6.536;2024-03-07T02:40:45;3.50;72.70
52034;DHT22;38045;52.988;6.536;2024-03-07T02:43:12;3.40;72.70
52034;DHT22;38045;52.988;6.536;2024-03-07T02:45:37;3.30;72.70
52034;DHT22;38045;52.988;6.536;2024-03-07T02:48:04;3.30;72.80
52034;DHT22;38045;52.988;6.536;2024-03-07T02:50:32;3.30;72.70
52034;DHT22;38045;52.988;6.536;2024-03-07T02:52:58;3.30;72.60
52034;DHT22;38045;52.988;6.536;2024-03-07T02:55:24;3.20;72.90
52034;DHT22;38045;52.988;6.536;2024-03-07T02:57:49;3.10;72.70
52034;DHT22;38045;52.988;6.536;2024-03-07T03:00:16;3.10;72.80
52034;DHT22;38045;52.988;6.536;2024-03-07T03:02:52;3.10;72.90
52034;DHT22;38045;52.988;6.536;2024-03-07T03:05:18;3.10;72.80
52034;DHT22;38045;52.988;6.536;2024-03-07T03:07:45;3.10;72.80
52034;DHT22;38045;52.988;6.536;2024-03-07T03:10:26;3.10;72.80
52034;DHT22;38045;52.988;6.536;2024-03-07T03:12:55;3.10;72.90
52034;DHT22;38045;52.988;6.536;2024-03-07T03:15:24;3.00;72.70
52034;DHT22;38045;52.988;6.536;2024-03-07T03:17:50;3.00;72.80
52034;DHT22;38045;52.988;6.536;2024-03-07T03:20:17;3.00;72.80
52034;DHT22;38045;52.988;6.536;2024-03-07T03:22:59;2.90;72.80
52034;DHT22;38045;52.988;6.536;2024-03-07T03:25:24;2.90;73.00
52034;DHT22;38045;52.988;6.536;2024-03-07T03:27:51;2.90;73.00
52034;DHT22;38045;52.988;6.536;2024-03-07T03:30:18;2.90;72.90
52034;DHT22;38045;52.988;6.536;2024-03-07T03:32:47;2.80;72.80
52034;DHT22;38045;52.988;6.536;2024-03-07T03:35:14;2.80;72.90
52034;DHT22;38045;52.988;6.536;2024-03-07T03:37:45;2.80;72.90
52034;DHT22;38045;52.988;6.536;2024-03-07T03:40:11;2.80;73.00
52034;DHT22;38045;52.988;6.536;2024-03-07T03:42:42;2.70;72.70
52034;DHT22;38045;52.988;6.536;2024-03-07T03:45:09;2.70;72.90
52034;DHT22;38045;52.988;6.536;2024-03-07T03:47:40;2.70;72.70
52034;DHT22;38045;52.988;6.536;2024-03-07T03:50:08;2.60;72.80
52034;DHT22;38045;52.988;6.536;2024-03-07T03:52:34;2.50;73.00
52034;DHT22;38045;52.988;6.536;2024-03-07T03:55:03;2.50;73.10
52034;DHT22;38045;52.988;6.536;2024-03-07T03:57:31;2.50;73.00
52034;DHT22;38045;52.988;6.536;2024-03-07T03:59:57;2.50;72.90
52034;DHT22;38045;52.988;6.536;2024-03-07T04:02:22;2.50;73.00
52034;DHT22;38045;52.988;6.536;2024-03-07T04:04:49;2.50;73.00
52034;DHT22;38045;52.988;6.536;2024-03-07T04:07:15;2.50;72.90
52034;DHT22;38045;52.988;6.536;2024-03-07T04:09:42;2.50;72.70
52034;DHT22;38045;52.988;6.536;2024-03-07T04:12:07;2.50;72.60
52034;DHT22;38045;52.988;6.536;2024-03-07T04:14:39;2.40;72.70
52034;DHT22;38045;52.988;6.536;2024-03-07T04:17:06;2.40;72.70
52034;DHT22;38045;52.988;6.536;2024-03-07T04:19:37;2.40;72.70
52034;DHT22;38045;52.988;6.536;2024-03-07T04:22:03;2.40;72.70
52034;DHT22;38045;52.988;6.536;2024-03-07T04:24:33;2.40;72.60
52034;DHT22;38045;52.988;6.536;2024-03-07T04:27:02;2.40;72.80
52034;DHT22;38045;52.988;6.536;2024-03-07T04:29:34;2.50;72.60
52034;DHT22;38045;52.988;6.536;2024-03-07T04:32:01;2.40;72.60
52034;DHT22;38045;52.988;6.536;2024-03-07T04:34:27;2.40;72.50
52034;DHT22;38045;52.988;6.536;2024-03-07T04:36:56;2.30;72.60
52034;DHT22;38045;52.988;6.536;2024-03-07T04:39:22;2.20;72.50
52034;DHT22;38045;52.988;6.536;2024-03-07T04:42:01;2.20;72.60
52034;DHT22;38045;52.988;6.536;2024-03-07T04:44:30;2.10;72.70
52034;DHT22;38045;52.988;6.536;2024-03-07T04:46:57;2.10;72.80
52034;DHT22;38045;52.988;6.536;2024-03-07T04:49:23;2.10;72.90
52034;DHT22;38045;52.988;6.536;2024-03-07T04:51:50;2.00;72.80
52034;DHT22;38045;52.988;6.536;2024-03-07T04:54:17;2.00;73.00
52034;DHT22;38045;52.988;6.536;2024-03-07T04:56:42;2.00;72.90
52034;DHT22;38045;52.988;6.536;2024-03-07T04:59:08;2.00;73.00
52034;DHT22;38045;52.988;6.536;2024-03-07T05:01:35;2.00;72.90
52034;DHT22;38045;52.988;6.536;2024-03-07T05:04:01;2.00;72.90
52034;DHT22;38045;52.988;6.536;2024-03-07T05:06:28;2.00;73.00
52034;DHT22;38045;52.988;6.536;2024-03-07T05:08:54;2.10;72.90
52034;DHT22;38045;52.988;6.536;2024-03-07T05:11:20;2.00;72.90
52034;DHT22;38045;52.988;6.536;2024-03-07T05:13:46;2.00;73.00
52034;DHT22;38045;52.988;6.536;2024-03-07T05:16:13;2.00;73.00
52034;DHT22;38045;52.988;6.536;2024-03-07T05:18:39;2.00;72.90
52034;DHT22;38045;52.988;6.536;2024-03-07T05:21:06;1.90;72.80
52034;DHT22;38045;52.988;6.536;2024-03-07T05:23:51;1.90;73.00
52034;DHT22;38045;52.988;6.536;2024-03-07T05:26:17;1.90;73.10
52034;DHT22;38045;52.988;6.536;2024-03-07T05:28:42;1.90;73.20
52034;DHT22;38045;52.988;6.536;2024-03-07T05:31:08;1.90;73.20
52034;DHT22;38045;52.988;6.536;2024-03-07T05:33:38;1.90;73.20
52034;DHT22;38045;52.988;6.536;2024-03-07T05:36:04;1.90;73.00
52034;DHT22;38045;52.988;6.536;2024-03-07T05:38:40;1.90;73.00
52034;DHT22;38045;52.988;6.536;2024-03-07T05:41:11;1.90;73.20
52034;DHT22;38045;52.988;6.536;2024-03-07T05:43:40;1.80;73.10
52034;DHT22;38045;52.988;6.536;2024-03-07T05:46:06;1.80;73.20
52034;DHT22;38045;52.988;6.536;2024-03-07T05:48:35;1.80;73.20
52034;DHT22;38045;52.988;6.536;2024-03-07T05:51:01;1.80;73.20
52034;DHT22;38045;52.988;6.536;2024-03-07T05:53:26;1.80;73.20
52034;DHT22;38045;52.988;6.536;2024-03-07T05:55:52;1.80;73.20
52034;DHT22;38045;52.988;6.536;2024-03-07T05:58:18;1.80;73.20
52034;DHT22;38045;52.988;6.536;2024-03-07T06:00:45;1.80;73.20
52034;DHT22;38045;52.988;6.536;2024-03-07T06:03:20;1.70;73.20
52034;DHT22;38045;52.988;6.536;2024-03-07T06:05:46;1.70;73.30
52034;DHT22;38045;52.988;6.536;2024-03-07T06:08:19;1.70;73.40
52034;DHT22;38045;52.988;6.536;2024-03-07T06:10:45;1.70;73.40
52034;DHT22;38045;52.988;6.536;2024-03-07T06:13:12;1.70;73.30
52034;DHT22;38045;52.988;6.536;2024-03-07T06:15:38;1.70;73.40
52034;DHT22;38045;52.988;6.536;2024-03-07T06:18:05;1.70;73.40
52034;DHT22;38045;52.988;6.536;2024-03-07T06:20:30;1.70;73.40
52034;DHT22;38045;52.988;6.536;2024-03-07T06:22:57;1.60;73.40
52034;DHT22;38045;52.988;6.536;2024-03-07T06:25:23;1.60;73.50
52034;DHT22;38045;52.988;6.536;2024-03-07T06:28:01;1.60;73.50
52034;DHT22;38045;52.988;6.536;2024-03-07T06:30:44;1.60;73.50
52034;DHT22;38045;52.988;6.536;2024-03-07T06:33:10;1.60;73.60
52034;DHT22;38045;52.988;6.536;2024-03-07T06:35:37;1.60;73.60
52034;DHT22;38045;52.988;6.536;2024-03-07T06:38:04;1.70;73.60
52034;DHT22;38045;52.988;6.536;2024-03-07T06:40:31;1.70;73.70
52034;DHT22;38045;52.988;6.536;2024-03-07T06:42:58;1.70;73.50
52034;DHT22;38045;52.988;6.536;2024-03-07T06:45:24;1.70;73.60
52034;DHT22;38045;52.988;6.536;2024-03-07T06:47:50;1.70;73.60
52034;DHT22;38045;52.988;6.536;2024-03-07T06:50:18;1.70;73.70
52034;DHT22;38045;52.988;6.536;2024-03-07T06:52:48;1.70;73.70
52034;DHT22;38045;52.988;6.536;2024-03-07T06:55:15;1.70;73.70
52034;DHT22;38045;52.988;6.536;2024-03-07T06:57:45;1.70;73.70
52034;DHT22;38045;52.988;6.536;2024-03-07T07:00:12;1.70;73.70
52034;DHT22;38045;52.988;6.536;2024-03-07T07:02:38;1.80;73.70
52034;DHT22;38045;52.988;6.536;2024-03-07T07:05:06;1.80;73.80
52034;DHT22;38045;52.988;6.536;2024-03-07T07:07:39;1.90;73.80
52034;DHT22;38045;52.988;6.536;2024-03-07T07:10:05;1.90;73.80
52034;DHT22;38045;52.988;6.536;2024-03-07T07:12:35;1.90;73.70
52034;DHT22;38045;52.988;6.536;2024-03-07T07:15:00;1.90;73.70
52034;DHT22;38045;52.988;6.536;2024-03-07T07:17:26;2.00;73.60
52034;DHT22;38045;52.988;6.536;2024-03-07T07:19:55;2.00;73.60
52034;DHT22;38045;52.988;6.536;2024-03-07T07:22:21;2.00;73.50
52034;DHT22;38045;52.988;6.536;2024-03-07T07:24:47;2.00;73.60
52034;DHT22;38045;52.988;6.536;2024-03-07T07:27:13;2.00;73.30
52034;DHT22;38045;52.988;6.536;2024-03-07T07:29:40;2.00;73.30
52034;DHT22;38045;52.988;6.536;2024-03-07T07:32:07;2.00;73.50
52034;DHT22;38045;52.988;6.536;2024-03-07T07:34:33;2.00;73.30
52034;DHT22;38045;52.988;6.536;2024-03-07T07:36:59;2.00;73.40
52034;DHT22;38045;52.988;6.536;2024-03-07T07:39:24;2.00;73.30
52034;DHT22;38045;52.988;6.536;2024-03-07T07:41:50;1.90;73.70
52034;DHT22;38045;52.988;6.536;2024-03-07T07:44:16;2.00;73.70
52034;DHT22;38045;52.988;6.536;2024-03-07T07:46:41;2.00;73.90
52034;DHT22;38045;52.988;6.536;2024-03-07T07:49:07;2.00;73.70
52034;DHT22;38045;52.988;6.536;2024-03-07T07:51:32;2.00;73.50
52034;DHT22;38045;52.988;6.536;2024-03-07T07:53:58;2.00;73.70
52034;DHT22;38045;52.988;6.536;2024-03-07T07:56:25;2.00;73.80
52034;DHT22;38045;52.988;6.536;2024-03-07T07:58:52;2.00;73.90
52034;DHT22;38045;52.988;6.536;2024-03-07T08:01:18;2.00;73.90
52034;DHT22;38045;52.988;6.536;2024-03-07T08:03:44;2.00;73.80
52034;DHT22;38045;52.988;6.536;2024-03-07T08:06:10;2.00;73.80
52034;DHT22;38045;52.988;6.536;2024-03-07T08:08:35;2.00;73.80
52034;DHT22;38045;52.988;6.536;2024-03-07T08:11:01;2.00;74.00
52034;DHT22;38045;52.988;6.536;2024-03-07T08:13:27;2.00;74.00
52034;DHT22;38045;52.988;6.536;2024-03-07T08:15:53;2.00;73.90
52034;DHT22;38045;52.988;6.536;2024-03-07T08:18:21;2.00;73.80
52034;DHT22;38045;52.988;6.536;2024-03-07T08:20:47;1.90;73.80
52034;DHT22;38045;52.988;6.536;2024-03-07T08:23:12;1.90;73.80
52034;DHT22;38045;52.988;6.536;2024-03-07T08:25:38;1.90;73.70
52034;DHT22;38045;52.988;6.536;2024-03-07T08:28:06;1.80;74.10
52034;DHT22;38045;52.988;6.536;2024-03-07T08:30:32;1.90;74.00
52034;DHT22;38045;52.988;6.536;2024-03-07T08:32:58;1.90;74.10
52034;DHT22;38045;52.988;6.536;2024-03-07T08:35:27;1.80;74.00
52034;DHT22;38045;52.988;6.536;2024-03-07T08:37:55;1.80;74.10
52034;DHT22;38045;52.988;6.536;2024-03-07T08:40:28;1.80;74.30
52034;DHT22;38045;52.988;6.536;2024-03-07T08:42:58;1.90;74.60
52034;DHT22;38045;52.988;6.536;2024-03-07T08:45:25;1.90;74.40
52034;DHT22;38045;52.988;6.536;2024-03-07T08:47:52;1.90;74.40
52034;DHT22;38045;52.988;6.536;2024-03-07T08:50:20;1.90;74.40
52034;DHT22;38045;52.988;6.536;2024-03-07T08:52:47;2.00;74.20
52034;DHT22;38045;52.988;6.536;2024-03-07T08:55:16;2.00;74.30
52034;DHT22;38045;52.988;6.536;2024-03-07T08:57:43;2.00;74.30
52034;DHT22;38045;52.988;6.536;2024-03-07T09:00:12;2.00;74.30
52034;DHT22;38045;52.988;6.536;2024-03-07T09:02:48;2.10;74.30
52034;DHT22;38045;52.988;6.536;2024-03-07T09:05:17;2.10;74.00
52034;DHT22;38045;52.988;6.536;2024-03-07T09:07:43;2.10;73.70
52034;DHT22;38045;52.988;6.536;2024-03-07T09:10:10;2.00;73.70
52034;DHT22;38045;52.988;6.536;2024-03-07T09:12:36;2.00;73.80
52034;DHT22;38045;52.988;6.536;2024-03-07T09:15:05;1.90;74.30
52034;DHT22;38045;52.988;6.536;2024-03-07T09:17:31;1.80;74.20
52034;DHT22;38045;52.988;6.536;2024-03-07T09:19:57;1.90;74.30
52034;DHT22;38045;52.988;6.536;2024-03-07T09:22:22;1.90;74.60
52034;DHT22;38045;52.988;6.536;2024-03-07T09:24:48;1.90;74.50
52034;DHT22;38045;52.988;6.536;2024-03-07T09:27:13;1.90;74.20
52034;DHT22;38045;52.988;6.536;2024-03-07T09:29:40;2.00;74.20
52034;DHT22;38045;52.988;6.536;2024-03-07T09:32:06;1.90;74.00
52034;DHT22;38045;52.988;6.536;2024-03-07T09:34:35;1.90;74.10
52034;DHT22;38045;52.988;6.536;2024-03-07T09:37:02;2.00;74.30
52034;DHT22;38045;52.988;6.536;2024-03-07T09:39:28;2.00;74.40
52034;DHT22;38045;52.988;6.536;2024-03-07T09:41:57;2.00;74.00
52034;DHT22;38045;52.988;6.536;2024-03-07T09:44:23;1.90;74.20
52034;DHT22;38045;52.988;6.536;2024-03-07T09:46:55;1.90;74.50
52034;DHT22;38045;52.988;6.536;2024-03-07T09:49:21;1.90;74.40
52034;DHT22;38045;52.988;6.536;2024-03-07T09:51:51;1.90;74.30
52034;DHT22;38045;52.988;6.536;2024-03-07T09:54:20;1.90;74.30
52034;DHT22;38045;52.988;6.536;2024-03-07T09:56:49;1.80;74.40
52034;DHT22;38045;52.988;6.536;2024-03-07T09:59:17;1.80;74.60
52034;DHT22;38045;52.988;6.536;2024-03-07T10:01:47;1.90;74.70
52034;DHT22;38045;52.988;6.536;2024-03-07T10:04:18;1.90;74.70
52034;DHT22;38045;52.988;6.536;2024-03-07T10:06:45;2.00;74.70
52034;DHT22;38045;52.988;6.536;2024-03-07T10:09:11;2.20;75.30
52034;DHT22;38045;52.988;6.536;2024-03-07T10:11:39;2.30;75.40
52034;DHT22;38045;52.988;6.536;2024-03-07T10:14:07;2.50;75.40
52034;DHT22;38045;52.988;6.536;2024-03-07T10:16:32;2.70;75.30
52034;DHT22;38045;52.988;6.536;2024-03-07T10:18:58;2.80;75.00
52034;DHT22;38045;52.988;6.536;2024-03-07T10:21:26;2.90;74.80
52034;DHT22;38045;52.988;6.536;2024-03-07T10:24:07;3.00;74.70
52034;DHT22;38045;52.988;6.536;2024-03-07T10:26:37;3.00;74.60
52034;DHT22;38045;52.988;6.536;2024-03-07T10:29:04;3.00;74.60
52034;DHT22;38045;52.988;6.536;2024-03-07T10:31:33;3.10;74.70
52034;DHT22;38045;52.988;6.536;2024-03-07T10:34:00;3.20;74.70
52034;DHT22;38045;52.988;6.536;2024-03-07T10:36:28;3.30;74.60
52034;DHT22;38045;52.988;6.536;2024-03-07T10:38:59;3.30;74.50
52034;DHT22;38045;52.988;6.536;2024-03-07T10:41:28;3.30;74.50
52034;DHT22;38045;52.988;6.536;2024-03-07T10:43:57;3.40;74.60
52034;DHT22;38045;52.988;6.536;2024-03-07T10:46:25;3.50;74.50
52034;DHT22;38045;52.988;6.536;2024-03-07T10:48:54;3.50;74.60
52034;DHT22;38045;52.988;6.536;2024-03-07T10:51:28;3.60;74.60
52034;DHT22;38045;52.988;6.536;2024-03-07T10:54:05;3.60;74.30
52034;DHT22;38045;52.988;6.536;2024-03-07T10:59:25;3.70;74.40
52034;DHT22;38045;52.988;6.536;2024-03-07T11:04:47;3.90;74.20
52034;DHT22;38045;52.988;6.536;2024-03-07T11:07:20;3.90;74.00
52034;DHT22;38045;52.988;6.536;2024-03-07T11:09:49;3.90;74.00
52034;DHT22;38045;52.988;6.536;2024-03-07T11:12:15;4.00;74.00
52034;DHT22;38045;52.988;6.536;2024-03-07T11:14:42;4.10;74.20
52034;DHT22;38045;52.988;6.536;2024-03-07T11:17:09;4.10;73.90
52034;DHT22;38045;52.988;6.536;2024-03-07T11:19:35;4.10;73.90
52034;DHT22;38045;52.988;6.536;2024-03-07T11:22:04;4.10;73.60
52034;DHT22;38045;52.988;6.536;2024-03-07T11:24:43;4.00;73.70
52034;DHT22;38045;52.988;6.536;2024-03-07T11:27:09;4.00;73.80
52034;DHT22;38045;52.988;6.536;2024-03-07T11:29:49;4.00;74.00
52034;DHT22;38045;52.988;6.536;2024-03-07T11:32:19;4.10;74.10
52034;DHT22;38045;52.988;6.536;2024-03-07T11:34:48;4.20;74.10
52034;DHT22;38045;52.988;6.536;2024-03-07T11:37:37;4.30;74.10
52034;DHT22;38045;52.988;6.536;2024-03-07T11:40:07;4.40;74.10
52034;DHT22;38045;52.988;6.536;2024-03-07T11:42:34;4.50;73.80
52034;DHT22;38045;52.988;6.536;2024-03-07T11:45:02;4.60;73.80
52034;DHT22;38045;52.988;6.536;2024-03-07T11:47:38;4.70;73.90
52034;DHT22;38045;52.988;6.536;2024-03-07T11:50:05;4.80;73.80
52034;DHT22;38045;52.988;6.536;2024-03-07T11:52:37;4.90;73.80
52034;DHT22;38045;52.988;6.536;2024-03-07T11:55:04;4.90;73.70
52034;DHT22;38045;52.988;6.536;2024-03-07T11:57:30;4.90;73.30
52034;DHT22;38045;52.988;6.536;2024-03-07T11:59:59;4.90;73.40
52034;DHT22;38045;52.988;6.536;2024-03-07T12:02:27;4.90;73.30
52034;DHT22;38045;52.988;6.536;2024-03-07T12:04:53;4.80;73.20
52034;DHT22;38045;52.988;6.536;2024-03-07T12:07:19;4.90;73.40
52034;DHT22;38045;52.988;6.536;2024-03-07T12:09:48;4.90;73.70
52034;DHT22;38045;52.988;6.536;2024-03-07T12:12:20;5.00;73.70
52034;DHT22;38045;52.988;6.536;2024-03-07T12:14:54;5.10;73.50
52034;DHT22;38045;52.988;6.536;2024-03-07T12:17:20;5.30;73.60
52034;DHT22;38045;52.988;6.536;2024-03-07T12:19:46;5.50;73.50
52034;DHT22;38045;52.988;6.536;2024-03-07T12:22:12;5.70;73.50
52034;DHT22;38045;52.988;6.536;2024-03-07T12:24:41;6.00;73.00
52034;DHT22;38045;52.988;6.536;2024-03-07T12:27:12;6.10;73.10
52034;DHT22;38045;52.988;6.536;2024-03-07T12:29:41;6.10;72.80
52034;DHT22;38045;52.988;6.536;2024-03-07T12:32:11;6.20;72.60
52034;DHT22;38045;52.988;6.536;2024-03-07T12:34:39;6.10;72.30
52034;DHT22;38045;52.988;6.536;2024-03-07T12:37:07;6.10;72.30
52034;DHT22;38045;52.988;6.536;2024-03-07T12:39:34;6.10;72.10
52034;DHT22;38045;52.988;6.536;2024-03-07T12:42:18;6.00;72.40
52034;DHT22;38045;52.988;6.536;2024-03-07T12:44:50;5.90;72.20
52034;DHT22;38045;52.988;6.536;2024-03-07T12:47:16;5.90;72.30
52034;DHT22;38045;52.988;6.536;2024-03-07T12:49:45;5.80;72.20
52034;DHT22;38045;52.988;6.536;2024-03-07T12:52:11;5.70;72.40
52034;DHT22;38045;52.988;6.536;2024-03-07T12:54:41;5.60;72.20
52034;DHT22;38045;52.988;6.536;2024-03-07T12:57:08;5.60;72.50
52034;DHT22;38045;52.988;6.536;2024-03-07T12:59:35;5.60;72.70
52034;DHT22;38045;52.988;6.536;2024-03-07T13:02:04;5.60;72.50
52034;DHT22;38045;52.988;6.536;2024-03-07T13:04:32;5.50;72.50
52034;DHT22;38045;52.988;6.536;2024-03-07T13:06:58;5.40;72.60
52034;DHT22;38045;52.988;6.536;2024-03-07T13:09:26;5.40;72.70
52034;DHT22;38045;52.988;6.536;2024-03-07T13:11:57;5.30;72.70
52034;DHT22;38045;52.988;6.536;2024-03-07T13:14:23;5.30;72.70
52034;DHT22;38045;52.988;6.536;2024-03-07T13:16:48;5.30;72.90
52034;DHT22;38045;52.988;6.536;2024-03-07T13:19:15;5.20;72.90
52034;DHT22;38045;52.988;6.536;2024-03-07T13:21:46;5.30;72.90
52034;DHT22;38045;52.988;6.536;2024-03-07T13:24:14;5.20;72.80
52034;DHT22;38045;52.988;6.536;2024-03-07T13:26:40;5.20;72.90
52034;DHT22;38045;52.988;6.536;2024-03-07T13:29:07;5.20;72.90
52034;DHT22;38045;52.988;6.536;2024-03-07T13:31:33;5.20;72.90
52034;DHT22;38045;52.988;6.536;2024-03-07T13:33:58;5.20;72.90
52034;DHT22;38045;52.988;6.536;2024-03-07T13:36:27;5.20;73.00
52034;DHT22;38045;52.988;6.536;2024-03-07T13:38:52;5.20;72.90
52034;DHT22;38045;52.988;6.536;2024-03-07T13:41:22;5.30;72.90
52034;DHT22;38045;52.988;6.536;2024-03-07T13:43:48;5.30;73.00
52034;DHT22;38045;52.988;6.536;2024-03-07T13:46:14;5.30;72.90
52034;DHT22;38045;52.988;6.536;2024-03-07T13:48:43;5.30;73.00
52034;DHT22;38045;52.988;6.536;2024-03-07T13:51:09;5.30;73.00
52034;DHT22;38045;52.988;6.536;2024-03-07T13:53:40;5.30;72.90
52034;DHT22;38045;52.988;6.536;2024-03-07T14:07:44;5.50;72.90
52034;DHT22;38045;52.988;6.536;2024-03-07T14:16:42;5.50;72.50
52034;DHT22;38045;52.988;6.536;2024-03-07T14:19:25;5.50;72.50
52034;DHT22;38045;52.988;6.536;2024-03-07T14:25:07;5.50;72.80
52034;DHT22;38045;52.988;6.536;2024-03-07T14:30:50;5.50;72.50
52034;DHT22;38045;52.988;6.536;2024-03-07T14:33:21;5.60;72.40
52034;DHT22;38045;52.988;6.536;2024-03-07T14:36:02;5.60;72.50
52034;DHT22;38045;52.988;6.536;2024-03-07T14:38:44;5.60;72.60
52034;DHT22;38045;52.988;6.536;2024-03-07T14:41:14;5.60;72.20
52034;DHT22;38045;52.988;6.536;2024-03-07T14:43:40;5.60;72.40
52034;DHT22;38045;52.988;6.536;2024-03-07T14:46:10;5.60;72.20
52034;DHT22;38045;52.988;6.536;2024-03-07T14:48:39;5.70;72.30
52034;DHT22;38045;52.988;6.536;2024-03-07T14:51:07;5.70;72.40
52034;DHT22;38045;52.988;6.536;2024-03-07T14:53:33;5.80;72.10
52034;DHT22;38045;52.988;6.536;2024-03-07T14:55:59;5.80;72.20
52034;DHT22;38045;52.988;6.536;2024-03-07T14:58:25;5.80;72.30
52034;DHT22;38045;52.988;6.536;2024-03-07T15:00:52;5.90;72.10
52034;DHT22;38045;52.988;6.536;2024-03-07T15:03:20;5.90;72.20
52034;DHT22;38045;52.988;6.536;2024-03-07T15:05:46;5.90;72.40
52034;DHT22;38045;52.988;6.536;2024-03-07T15:08:14;5.90;72.20
52034;DHT22;38045;52.988;6.536;2024-03-07T15:10:50;6.00;72.30
52034;DHT22;38045;52.988;6.536;2024-03-07T15:13:17;6.00;72.20
52034;DHT22;38045;52.988;6.536;2024-03-07T15:15:42;6.10;72.20
52034;DHT22;38045;52.988;6.536;2024-03-07T15:18:10;6.10;72.00
52034;DHT22;38045;52.988;6.536;2024-03-07T15:20:36;6.10;71.80
52034;DHT22;38045;52.988;6.536;2024-03-07T15:23:02;6.10;71.60
52034;DHT22;38045;52.988;6.536;2024-03-07T15:25:32;6.10;71.40
52034;DHT22;38045;52.988;6.536;2024-03-07T15:27:57;6.10;71.70
52034;DHT22;38045;52.988;6.536;2024-03-07T15:30:25;6.10;71.70
52034;DHT22;38045;52.988;6.536;2024-03-07T15:32:57;6.10;71.60
52034;DHT22;38045;52.988;6.536;2024-03-07T15:35:23;6.10;71.60
52034;DHT22;38045;52.988;6.536;2024-03-07T15:37:49;6.10;71.80
52034;DHT22;38045;52.988;6.536;2024-03-07T15:40:16;6.10;72.00
52034;DHT22;38045;52.988;6.536;2024-03-07T15:42:43;6.20;71.80
52034;DHT22;38045;52.988;6.536;2024-03-07T15:45:13;6.20;71.80
52034;DHT22;38045;52.988;6.536;2024-03-07T15:47:46;6.20;71.70
52034;DHT22;38045;52.988;6.536;2024-03-07T15:50:13;6.20;71.80
52034;DHT22;38045;52.988;6.536;2024-03-07T15:52:42;6.10;71.50
52034;DHT22;38045;52.988;6.536;2024-03-07T15:55:09;6.10;71.70
52034;DHT22;38045;52.988;6.536;2024-03-07T15:57:53;6.10;71.40
52034;DHT22;38045;52.988;6.536;2024-03-07T16:00:23;6.00;71.10
52034;DHT22;38045;52.988;6.536;2024-03-07T16:03:03;6.00;71.50
52034;DHT22;38045;52.988;6.536;2024-03-07T16:05:30;6.00;71.10
52034;DHT22;38045;52.988;6.536;2024-03-07T16:07:58;5.90;71.10
52034;DHT22;38045;52.988;6.536;2024-03-07T16:10:30;5.90;71.20
52034;DHT22;38045;52.988;6.536;2024-03-07T16:12:57;5.90;71.10
52034;DHT22;38045;52.988;6.536;2024-03-07T16:15:23;5.90;70.90
52034;DHT22;38045;52.988;6.536;2024-03-07T16:17:50;5.80;71.00
52034;DHT22;38045;52.988;6.536;2024-03-07T16:20:15;5.80;71.10